sensor_id;sensor_type;location;lat;lon;timestamp;P1;durP1;ratioP1;P2;durP2;ratioP2
76059;SDS011;64759;52.220;5.170;2023-03-23T00:00:56;11.07;;;4.75;;
76059;SDS011;64759;52.220;5.170;2023-03-23T00:03:22;13.20;;;6.03;;
76059;SDS011;64759;52.220;5.170;2023-03-23T00:05:50;11.10;;;4.60;;
76059;SDS011;64759;52.220;5.170;2023-03-23T00:08:17;15.30;;;5.40;;
76059;SDS011;64759;52.220;5.170;2023-03-23T00:10:47;8.35;;;4.43;;
76059;SDS011;64759;52.220;5.170;2023-03-23T00:13:14;11.55;;;4.78;;
76059;SDS011;64759;52.220;5.170;2023-03-23T00:18:09;7.47;;;4.10;;
76059;SDS011;64759;52.220;5.170;2023-03-23T00:20:50;9.45;;;3.67;;
76059;SDS011;64759;52.220;5.170;2023-03-23T00:23:21;12.75;;;4.70;;
76059;SDS011;64759;52.220;5.170;2023-03-23T00:25:52;10.73;;;3.70;;
76059;SDS011;64759;52.220;5.170;2023-03-23T00:28:21;9.05;;;4.30;;
76059;SDS011;64759;52.220;5.170;2023-03-23T00:30:57;10.48;;;4.80;;
76059;SDS011;64759;52.220;5.170;2023-03-23T00:33:24;8.20;;;4.25;;
76059;SDS011;64759;52.220;5.170;2023-03-23T00:35:52;7.82;;;3.97;;
76059;SDS011;64759;52.220;5.170;2023-03-23T00:38:20;11.00;;;4.00;;
76059;SDS011;64759;52.220;5.170;2023-03-23T00:40:46;10.98;;;3.65;;
76059;SDS011;64759;52.220;5.170;2023-03-23T00:43:15;8.82;;;3.95;;
76059;SDS011;64759;52.220;5.170;2023-03-23T00:45:44;9.90;;;3.60;;
76059;SDS011;64759;52.220;5.170;2023-03-23T00:48:14;6.63;;;3.53;;
76059;SDS011;64759;52.220;5.170;2023-03-23T00:50:40;10.10;;;3.72;;
76059;SDS011;64759;52.220;5.170;2023-03-23T00:53:06;8.40;;;3.70;;
76059;SDS011;64759;52.220;5.170;2023-03-23T00:55:32;9.73;;;3.53;;
76059;SDS011;64759;52.220;5.170;2023-03-23T00:57:59;8.95;;;3.67;;
76059;SDS011;64759;52.220;5.170;2023-03-23T01:00:25;6.57;;;3.35;;
76059;SDS011;64759;52.220;5.170;2023-03-23T01:02:54;6.60;;;3.10;;
76059;SDS011;64759;52.220;5.170;2023-03-23T01:05:20;11.65;;;3.97;;
76059;SDS011;64759;52.220;5.170;2023-03-23T01:07:45;6.80;;;3.38;;
76059;SDS011;64759;52.220;5.170;2023-03-23T01:10:12;7.30;;;3.55;;
76059;SDS011;64759;52.220;5.170;2023-03-23T01:12:42;6.97;;;3.58;;
76059;SDS011;64759;52.220;5.170;2023-03-23T01:15:12;12.18;;;4.13;;
76059;SDS011;64759;52.220;5.170;2023-03-23T01:17:39;10.77;;;3.13;;
76059;SDS011;64759;52.220;5.170;2023-03-23T01:20:05;7.65;;;3.97;;
76059;SDS011;64759;52.220;5.170;2023-03-23T01:22:32;9.93;;;3.90;;
76059;SDS011;64759;52.220;5.170;2023-03-23T01:24:57;9.55;;;3.38;;
76059;SDS011;64759;52.220;5.170;2023-03-23T01:27:22;9.55;;;3.75;;
76059;SDS011;64759;52.220;5.170;2023-03-23T01:29:48;5.28;;;2.83;;
76059;SDS011;64759;52.220;5.170;2023-03-23T01:32:13;6.10;;;3.00;;
76059;SDS011;64759;52.220;5.170;2023-03-23T01:34:39;7.43;;;3.17;;
76059;SDS011;64759;52.220;5.170;2023-03-23T01:37:05;11.18;;;3.38;;
76059;SDS011;64759;52.220;5.170;2023-03-23T01:39:30;12.23;;;3.35;;
76059;SDS011;64759;52.220;5.170;2023-03-23T01:41:56;9.05;;;3.03;;
76059;SDS011;64759;52.220;5.170;2023-03-23T01:47:09;4.22;;;2.72;;
76059;SDS011;64759;52.220;5.170;2023-03-23T01:49:37;6.30;;;3.00;;
76059;SDS011;64759;52.220;5.170;2023-03-23T01:52:08;5.20;;;2.67;;
76059;SDS011;64759;52.220;5.170;2023-03-23T01:54:45;6.38;;;3.03;;
76059;SDS011;64759;52.220;5.170;2023-03-23T01:57:13;7.22;;;3.03;;
76059;SDS011;64759;52.220;5.170;2023-03-23T02:02:22;4.95;;;3.08;;
76059;SDS011;64759;52.220;5.170;2023-03-23T02:04:51;9.02;;;3.15;;
76059;SDS011;64759;52.220;5.170;2023-03-23T02:07:24;5.03;;;2.85;;
76059;SDS011;64759;52.220;5.170;2023-03-23T02:09:52;6.30;;;2.80;;
76059;SDS011;64759;52.220;5.170;2023-03-23T02:12:18;3.88;;;2.60;;
76059;SDS011;64759;52.220;5.170;2023-03-23T02:14:45;6.90;;;2.90;;
76059;SDS011;64759;52.220;5.170;2023-03-23T02:17:17;7.55;;;2.75;;
76059;SDS011;64759;52.220;5.170;2023-03-23T02:28:05;8.85;;;3.58;;
76059;SDS011;64759;52.220;5.170;2023-03-23T02:41:36;4.63;;;3.00;;
76059;SDS011;64759;52.220;5.170;2023-03-23T02:44:12;6.90;;;2.95;;
76059;SDS011;64759;52.220;5.170;2023-03-23T02:46:40;4.68;;;2.78;;
76059;SDS011;64759;52.220;5.170;2023-03-23T02:49:07;6.22;;;3.10;;
76059;SDS011;64759;52.220;5.170;2023-03-23T02:51:36;7.18;;;2.70;;
76059;SDS011;64759;52.220;5.170;2023-03-23T02:54:03;8.38;;;3.00;;
76059;SDS011;64759;52.220;5.170;2023-03-23T02:56:30;8.85;;;3.28;;
76059;SDS011;64759;52.220;5.170;2023-03-23T02:59:00;7.28;;;2.50;;
76059;SDS011;64759;52.220;5.170;2023-03-23T03:04:01;5.10;;;2.05;;
76059;SDS011;64759;52.220;5.170;2023-03-23T03:06:35;6.40;;;2.35;;
76059;SDS011;64759;52.220;5.170;2023-03-23T03:12:06;4.03;;;1.92;;
76059;SDS011;64759;52.220;5.170;2023-03-23T03:14:39;5.85;;;2.33;;
76059;SDS011;64759;52.220;5.170;2023-03-23T03:17:15;8.88;;;2.88;;
76059;SDS011;64759;52.220;5.170;2023-03-23T03:19:58;8.32;;;2.15;;
76059;SDS011;64759;52.220;5.170;2023-03-23T03:22:32;6.38;;;2.03;;
76059;SDS011;64759;52.220;5.170;2023-03-23T03:25:02;6.65;;;1.95;;
76059;SDS011;64759;52.220;5.170;2023-03-23T03:27:29;6.82;;;2.15;;
76059;SDS011;64759;52.220;5.170;2023-03-23T03:30:07;8.15;;;2.00;;
76059;SDS011;64759;52.220;5.170;2023-03-23T03:32:43;4.88;;;1.70;;
76059;SDS011;64759;52.220;5.170;2023-03-23T03:35:14;7.82;;;2.10;;
76059;SDS011;64759;52.220;5.170;2023-03-23T03:37:42;6.20;;;2.00;;
76059;SDS011;64759;52.220;5.170;2023-03-23T03:40:12;7.40;;;2.58;;
76059;SDS011;64759;52.220;5.170;2023-03-23T03:42:41;6.00;;;1.77;;
76059;SDS011;64759;52.220;5.170;2023-03-23T03:45:09;12.25;;;2.70;;
76059;SDS011;64759;52.220;5.170;2023-03-23T03:47:37;4.00;;;1.67;;
76059;SDS011;64759;52.220;5.170;2023-03-23T03:50:03;4.97;;;1.90;;
76059;SDS011;64759;52.220;5.170;2023-03-23T03:52:30;7.30;;;1.73;;
76059;SDS011;64759;52.220;5.170;2023-03-23T03:54:55;6.93;;;2.28;;
76059;SDS011;64759;52.220;5.170;2023-03-23T03:57:21;10.98;;;2.53;;
76059;SDS011;64759;52.220;5.170;2023-03-23T04:00:07;5.65;;;2.60;;
76059;SDS011;64759;52.220;5.170;2023-03-23T04:02:43;6.15;;;2.50;;
76059;SDS011;64759;52.220;5.170;2023-03-23T04:05:18;11.60;;;2.92;;
76059;SDS011;64759;52.220;5.170;2023-03-23T04:07:47;6.63;;;2.88;;
76059;SDS011;64759;52.220;5.170;2023-03-23T04:10:19;7.88;;;3.55;;
76059;SDS011;64759;52.220;5.170;2023-03-23T04:12:48;13.25;;;3.97;;
76059;SDS011;64759;52.220;5.170;2023-03-23T04:15:33;14.48;;;3.40;;
76059;SDS011;64759;52.220;5.170;2023-03-23T04:17:59;16.33;;;4.43;;
76059;SDS011;64759;52.220;5.170;2023-03-23T04:20:25;17.08;;;4.47;;
76059;SDS011;64759;52.220;5.170;2023-03-23T04:22:52;8.68;;;3.58;;
76059;SDS011;64759;52.220;5.170;2023-03-23T04:25:20;4.68;;;1.88;;
76059;SDS011;64759;52.220;5.170;2023-03-23T04:27:49;8.52;;;3.30;;
76059;SDS011;64759;52.220;5.170;2023-03-23T04:30:20;9.27;;;2.75;;
76059;SDS011;64759;52.220;5.170;2023-03-23T04:32:59;4.13;;;1.83;;
76059;SDS011;64759;52.220;5.170;2023-03-23T04:35:26;7.03;;;1.95;;
76059;SDS011;64759;52.220;5.170;2023-03-23T04:38:05;12.30;;;3.58;;
76059;SDS011;64759;52.220;5.170;2023-03-23T04:40:31;6.38;;;2.35;;
76059;SDS011;64759;52.220;5.170;2023-03-23T04:43:10;13.95;;;3.35;;
76059;SDS011;64759;52.220;5.170;2023-03-23T04:45:53;14.23;;;2.67;;
76059;SDS011;64759;52.220;5.170;2023-03-23T04:48:24;12.35;;;2.80;;
76059;SDS011;64759;52.220;5.170;2023-03-23T04:51:02;13.85;;;4.00;;
76059;SDS011;64759;52.220;5.170;2023-03-23T04:53:30;10.52;;;2.67;;
76059;SDS011;64759;52.220;5.170;2023-03-23T04:55:56;12.15;;;2.78;;
76059;SDS011;64759;52.220;5.170;2023-03-23T04:58:24;15.60;;;2.83;;
76059;SDS011;64759;52.220;5.170;2023-03-23T05:01:08;19.92;;;4.95;;
76059;SDS011;64759;52.220;5.170;2023-03-23T05:03:42;14.38;;;3.03;;
76059;SDS011;64759;52.220;5.170;2023-03-23T05:06:09;11.80;;;3.83;;
76059;SDS011;64759;52.220;5.170;2023-03-23T05:08:36;7.78;;;2.78;;
76059;SDS011;64759;52.220;5.170;2023-03-23T05:11:04;16.60;;;2.65;;
76059;SDS011;64759;52.220;5.170;2023-03-23T05:13:33;12.18;;;2.08;;
76059;SDS011;64759;52.220;5.170;2023-03-23T05:16:03;10.80;;;2.63;;
76059;SDS011;64759;52.220;5.170;2023-03-23T05:18:31;13.05;;;2.63;;
76059;SDS011;64759;52.220;5.170;2023-03-23T05:21:01;13.90;;;2.88;;
76059;SDS011;64759;52.220;5.170;2023-03-23T05:23:32;11.57;;;3.20;;
76059;SDS011;64759;52.220;5.170;2023-03-23T05:26:04;12.60;;;2.90;;
76059;SDS011;64759;52.220;5.170;2023-03-23T05:28:32;11.70;;;2.55;;
76059;SDS011;64759;52.220;5.170;2023-03-23T05:31:04;10.55;;;2.50;;
76059;SDS011;64759;52.220;5.170;2023-03-23T05:33:32;18.80;;;2.95;;
76059;SDS011;64759;52.220;5.170;2023-03-23T05:35:57;16.20;;;3.10;;
76059;SDS011;64759;52.220;5.170;2023-03-23T05:38:30;13.95;;;3.33;;
76059;SDS011;64759;52.220;5.170;2023-03-23T05:40:58;13.43;;;3.00;;
76059;SDS011;64759;52.220;5.170;2023-03-23T05:43:30;17.45;;;2.90;;
76059;SDS011;64759;52.220;5.170;2023-03-23T05:46:18;16.23;;;3.53;;
76059;SDS011;64759;52.220;5.170;2023-03-23T05:48:45;14.38;;;4.28;;
76059;SDS011;64759;52.220;5.170;2023-03-23T05:51:15;15.20;;;4.05;;
76059;SDS011;64759;52.220;5.170;2023-03-23T05:53:42;18.55;;;4.43;;
76059;SDS011;64759;52.220;5.170;2023-03-23T05:56:10;13.20;;;3.22;;
76059;SDS011;64759;52.220;5.170;2023-03-23T05:58:54;17.17;;;4.75;;
76059;SDS011;64759;52.220;5.170;2023-03-23T06:01:20;15.95;;;4.22;;
76059;SDS011;64759;52.220;5.170;2023-03-23T06:03:45;19.05;;;4.55;;
76059;SDS011;64759;52.220;5.170;2023-03-23T06:06:21;17.92;;;4.80;;
76059;SDS011;64759;52.220;5.170;2023-03-23T06:09:02;22.08;;;4.97;;
76059;SDS011;64759;52.220;5.170;2023-03-23T06:11:48;18.92;;;4.50;;
76059;SDS011;64759;52.220;5.170;2023-03-23T06:14:27;19.60;;;3.60;;
76059;SDS011;64759;52.220;5.170;2023-03-23T06:16:53;17.95;;;4.50;;
76059;SDS011;64759;52.220;5.170;2023-03-23T06:19:18;15.90;;;4.07;;
76059;SDS011;64759;52.220;5.170;2023-03-23T06:21:54;20.02;;;3.83;;
76059;SDS011;64759;52.220;5.170;2023-03-23T06:24:43;12.35;;;3.38;;
76059;SDS011;64759;52.220;5.170;2023-03-23T06:27:13;11.70;;;3.33;;
76059;SDS011;64759;52.220;5.170;2023-03-23T06:29:42;17.40;;;3.80;;
76059;SDS011;64759;52.220;5.170;2023-03-23T06:32:09;11.18;;;3.30;;
76059;SDS011;64759;52.220;5.170;2023-03-23T06:34:36;22.23;;;4.25;;
76059;SDS011;64759;52.220;5.170;2023-03-23T06:37:20;15.70;;;4.25;;
76059;SDS011;64759;52.220;5.170;2023-03-23T06:40:00;29.90;;;5.32;;
76059;SDS011;64759;52.220;5.170;2023-03-23T06:42:34;12.93;;;3.45;;
76059;SDS011;64759;52.220;5.170;2023-03-23T06:45:35;15.25;;;3.50;;
76059;SDS011;64759;52.220;5.170;2023-03-23T06:48:30;13.63;;;3.72;;
76059;SDS011;64759;52.220;5.170;2023-03-23T06:50:55;16.08;;;4.13;;
76059;SDS011;64759;52.220;5.170;2023-03-23T06:53:24;16.85;;;5.07;;
76059;SDS011;64759;52.220;5.170;2023-03-23T06:58:19;16.67;;;3.88;;
76059;SDS011;64759;52.220;5.170;2023-03-23T07:00:46;20.20;;;4.88;;
76059;SDS011;64759;52.220;5.170;2023-03-23T07:03:14;13.77;;;4.00;;
76059;SDS011;64759;52.220;5.170;2023-03-23T07:05:40;18.58;;;4.28;;
76059;SDS011;64759;52.220;5.170;2023-03-23T07:08:08;13.65;;;3.65;;
76059;SDS011;64759;52.220;5.170;2023-03-23T07:10:40;15.13;;;4.30;;
76059;SDS011;64759;52.220;5.170;2023-03-23T07:13:10;15.55;;;4.30;;
76059;SDS011;64759;52.220;5.170;2023-03-23T07:15:47;14.43;;;4.28;;
76059;SDS011;64759;52.220;5.170;2023-03-23T07:18:13;18.75;;;4.32;;
76059;SDS011;64759;52.220;5.170;2023-03-23T07:20:43;19.05;;;4.32;;
76059;SDS011;64759;52.220;5.170;2023-03-23T07:23:14;20.45;;;4.88;;
76059;SDS011;64759;52.220;5.170;2023-03-23T07:28:15;17.23;;;4.40;;
76059;SDS011;64759;52.220;5.170;2023-03-23T07:30:41;21.65;;;3.97;;
76059;SDS011;64759;52.220;5.170;2023-03-23T07:33:09;16.42;;;4.57;;
76059;SDS011;64759;52.220;5.170;2023-03-23T07:35:36;23.83;;;4.63;;
76059;SDS011;64759;52.220;5.170;2023-03-23T07:38:06;15.07;;;3.58;;
76059;SDS011;64759;52.220;5.170;2023-03-23T07:40:34;16.75;;;2.78;;
76059;SDS011;64759;52.220;5.170;2023-03-23T07:43:06;14.70;;;3.03;;
76059;SDS011;64759;52.220;5.170;2023-03-23T07:45:52;15.05;;;3.58;;
76059;SDS011;64759;52.220;5.170;2023-03-23T07:48:18;12.98;;;3.10;;
76059;SDS011;64759;52.220;5.170;2023-03-23T07:50:44;11.02;;;3.05;;
76059;SDS011;64759;52.220;5.170;2023-03-23T07:53:11;17.13;;;4.28;;
76059;SDS011;64759;52.220;5.170;2023-03-23T07:55:39;11.50;;;2.70;;
76059;SDS011;64759;52.220;5.170;2023-03-23T07:58:15;14.05;;;4.50;;
76059;SDS011;64759;52.220;5.170;2023-03-23T08:00:45;13.75;;;3.33;;
76059;SDS011;64759;52.220;5.170;2023-03-23T08:03:14;21.65;;;3.85;;
76059;SDS011;64759;52.220;5.170;2023-03-23T08:06:12;18.40;;;3.58;;
76059;SDS011;64759;52.220;5.170;2023-03-23T08:08:49;12.82;;;3.33;;
76059;SDS011;64759;52.220;5.170;2023-03-23T08:11:34;17.13;;;3.78;;
76059;SDS011;64759;52.220;5.170;2023-03-23T08:14:26;20.17;;;3.28;;
76059;SDS011;64759;52.220;5.170;2023-03-23T08:17:03;15.70;;;3.38;;
76059;SDS011;64759;52.220;5.170;2023-03-23T08:19:36;16.42;;;3.22;;
76059;SDS011;64759;52.220;5.170;2023-03-23T08:22:30;10.25;;;3.00;;
76059;SDS011;64759;52.220;5.170;2023-03-23T08:25:22;8.00;;;2.28;;
76059;SDS011;64759;52.220;5.170;2023-03-23T08:28:11;17.35;;;3.10;;
76059;SDS011;64759;52.220;5.170;2023-03-23T08:30:58;14.60;;;3.55;;
76059;SDS011;64759;52.220;5.170;2023-03-23T08:33:33;10.20;;;2.83;;
76059;SDS011;64759;52.220;5.170;2023-03-23T08:36:18;11.40;;;2.88;;
76059;SDS011;64759;52.220;5.170;2023-03-23T08:39:02;9.68;;;2.70;;
76059;SDS011;64759;52.220;5.170;2023-03-23T08:41:50;15.20;;;3.00;;
76059;SDS011;64759;52.220;5.170;2023-03-23T08:44:36;11.48;;;2.40;;
76059;SDS011;64759;52.220;5.170;2023-03-23T08:47:27;9.82;;;2.80;;
76059;SDS011;64759;52.220;5.170;2023-03-23T08:50:14;16.55;;;3.67;;
76059;SDS011;64759;52.220;5.170;2023-03-23T08:53:00;16.38;;;4.35;;
76059;SDS011;64759;52.220;5.170;2023-03-23T08:55:52;13.50;;;3.13;;
76059;SDS011;64759;52.220;5.170;2023-03-23T08:58:34;12.90;;;2.70;;
76059;SDS011;64759;52.220;5.170;2023-03-23T09:01:20;11.88;;;3.15;;
76059;SDS011;64759;52.220;5.170;2023-03-23T09:03:55;10.10;;;2.97;;
76059;SDS011;64759;52.220;5.170;2023-03-23T09:06:26;12.38;;;3.55;;
76059;SDS011;64759;52.220;5.170;2023-03-23T09:08:52;15.77;;;3.38;;
76059;SDS011;64759;52.220;5.170;2023-03-23T09:11:21;10.33;;;2.80;;
76059;SDS011;64759;52.220;5.170;2023-03-23T09:14:01;11.63;;;3.42;;
76059;SDS011;64759;52.220;5.170;2023-03-23T09:16:28;12.00;;;3.35;;
76059;SDS011;64759;52.220;5.170;2023-03-23T09:18:54;11.27;;;3.60;;
76059;SDS011;64759;52.220;5.170;2023-03-23T09:21:22;11.23;;;3.00;;
76059;SDS011;64759;52.220;5.170;2023-03-23T09:23:48;20.63;;;4.22;;
76059;SDS011;64759;52.220;5.170;2023-03-23T09:26:14;12.02;;;3.20;;
76059;SDS011;64759;52.220;5.170;2023-03-23T09:28:40;13.23;;;3.53;;
76059;SDS011;64759;52.220;5.170;2023-03-23T09:31:06;12.45;;;3.05;;
76059;SDS011;64759;52.220;5.170;2023-03-23T09:33:31;17.48;;;3.28;;
76059;SDS011;64759;52.220;5.170;2023-03-23T09:36:00;20.25;;;4.13;;
76059;SDS011;64759;52.220;5.170;2023-03-23T09:38:30;17.67;;;4.55;;
76059;SDS011;64759;52.220;5.170;2023-03-23T09:41:01;20.00;;;3.78;;
76059;SDS011;64759;52.220;5.170;2023-03-23T09:46:47;18.88;;;4.55;;
76059;SDS011;64759;52.220;5.170;2023-03-23T09:49:36;17.90;;;4.05;;
76059;SDS011;64759;52.220;5.170;2023-03-23T09:52:14;16.92;;;2.75;;
76059;SDS011;64759;52.220;5.170;2023-03-23T09:54:42;20.20;;;4.00;;
76059;SDS011;64759;52.220;5.170;2023-03-23T09:57:11;24.58;;;5.20;;
76059;SDS011;64759;52.220;5.170;2023-03-23T09:59:52;20.08;;;4.47;;
76059;SDS011;64759;52.220;5.170;2023-03-23T10:02:36;15.15;;;4.18;;
76059;SDS011;64759;52.220;5.170;2023-03-23T10:07:50;21.50;;;4.38;;
76059;SDS011;64759;52.220;5.170;2023-03-23T10:10:15;18.92;;;4.40;;
76059;SDS011;64759;52.220;5.170;2023-03-23T10:12:49;20.45;;;3.70;;
76059;SDS011;64759;52.220;5.170;2023-03-23T10:15:29;11.40;;;3.08;;
76059;SDS011;64759;52.220;5.170;2023-03-23T10:18:01;22.38;;;3.88;;
76059;SDS011;64759;52.220;5.170;2023-03-23T10:28:50;16.77;;;3.35;;
76059;SDS011;64759;52.220;5.170;2023-03-23T10:31:26;18.02;;;4.57;;
76059;SDS011;64759;52.220;5.170;2023-03-23T10:33:59;17.75;;;3.25;;
76059;SDS011;64759;52.220;5.170;2023-03-23T10:36:37;13.68;;;3.85;;
76059;SDS011;64759;52.220;5.170;2023-03-23T10:39:13;17.58;;;3.75;;
76059;SDS011;64759;52.220;5.170;2023-03-23T10:41:46;18.05;;;4.47;;
76059;SDS011;64759;52.220;5.170;2023-03-23T10:44:13;18.58;;;3.90;;
76059;SDS011;64759;52.220;5.170;2023-03-23T10:49:20;12.15;;;3.42;;
76059;SDS011;64759;52.220;5.170;2023-03-23T10:51:57;10.70;;;2.95;;
76059;SDS011;64759;52.220;5.170;2023-03-23T10:54:36;19.73;;;3.35;;
76059;SDS011;64759;52.220;5.170;2023-03-23T10:57:21;19.55;;;4.68;;
76059;SDS011;64759;52.220;5.170;2023-03-23T10:59:49;14.98;;;2.95;;
76059;SDS011;64759;52.220;5.170;2023-03-23T11:02:16;18.42;;;3.55;;
76059;SDS011;64759;52.220;5.170;2023-03-23T11:04:53;14.00;;;3.38;;
76059;SDS011;64759;52.220;5.170;2023-03-23T11:07:28;13.10;;;2.90;;
76059;SDS011;64759;52.220;5.170;2023-03-23T11:09:56;20.48;;;3.55;;
76059;SDS011;64759;52.220;5.170;2023-03-23T11:12:23;19.95;;;4.25;;
76059;SDS011;64759;52.220;5.170;2023-03-23T11:14:49;19.98;;;4.25;;
76059;SDS011;64759;52.220;5.170;2023-03-23T11:17:25;20.88;;;4.35;;
76059;SDS011;64759;52.220;5.170;2023-03-23T11:19:52;17.27;;;3.42;;
76059;SDS011;64759;52.220;5.170;2023-03-23T11:22:26;24.13;;;4.37;;
76059;SDS011;64759;52.220;5.170;2023-03-23T11:24:54;18.30;;;3.95;;
76059;SDS011;64759;52.220;5.170;2023-03-23T11:27:22;20.27;;;3.55;;
76059;SDS011;64759;52.220;5.170;2023-03-23T11:32:17;20.33;;;3.63;;
76059;SDS011;64759;52.220;5.170;2023-03-23T11:34:44;15.05;;;4.00;;
76059;SDS011;64759;52.220;5.170;2023-03-23T11:37:25;20.67;;;4.53;;
76059;SDS011;64759;52.220;5.170;2023-03-23T11:40:02;17.92;;;4.10;;
76059;SDS011;64759;52.220;5.170;2023-03-23T11:42:48;21.20;;;3.95;;
76059;SDS011;64759;52.220;5.170;2023-03-23T11:48:21;15.73;;;3.88;;
76059;SDS011;64759;52.220;5.170;2023-03-23T11:51:00;17.23;;;3.95;;
76059;SDS011;64759;52.220;5.170;2023-03-23T11:58:59;19.50;;;4.22;;
76059;SDS011;64759;52.220;5.170;2023-03-23T12:07:00;12.88;;;4.15;;
76059;SDS011;64759;52.220;5.170;2023-03-23T12:12:32;15.70;;;3.45;;
76059;SDS011;64759;52.220;5.170;2023-03-23T12:24:08;19.95;;;4.00;;
76059;SDS011;64759;52.220;5.170;2023-03-23T12:29:33;25.95;;;4.65;;
76059;SDS011;64759;52.220;5.170;2023-03-23T12:35:14;16.35;;;4.40;;
76059;SDS011;64759;52.220;5.170;2023-03-23T12:48:24;8.95;;;2.80;;
76059;SDS011;64759;52.220;5.170;2023-03-23T12:51:02;14.90;;;3.15;;
76059;SDS011;64759;52.220;5.170;2023-03-23T12:56:55;13.15;;;2.80;;
76059;SDS011;64759;52.220;5.170;2023-03-23T12:59:36;14.65;;;3.08;;
76059;SDS011;64759;52.220;5.170;2023-03-23T13:02:10;15.43;;;3.03;;
76059;SDS011;64759;52.220;5.170;2023-03-23T13:04:50;12.95;;;2.72;;
76059;SDS011;64759;52.220;5.170;2023-03-23T13:07:26;14.00;;;3.08;;
76059;SDS011;64759;52.220;5.170;2023-03-23T13:10:09;8.68;;;3.10;;
76059;SDS011;64759;52.220;5.170;2023-03-23T13:12:44;13.80;;;2.70;;
76059;SDS011;64759;52.220;5.170;2023-03-23T13:15:27;12.10;;;3.35;;
76059;SDS011;64759;52.220;5.170;2023-03-23T13:18:02;16.70;;;3.63;;
76059;SDS011;64759;52.220;5.170;2023-03-23T13:28:17;13.48;;;3.85;;
76059;SDS011;64759;52.220;5.170;2023-03-23T13:30:53;17.80;;;3.92;;
76059;SDS011;64759;52.220;5.170;2023-03-23T13:33:37;20.20;;;4.53;;
76059;SDS011;64759;52.220;5.170;2023-03-23T13:36:04;17.15;;;3.50;;
76059;SDS011;64759;52.220;5.170;2023-03-23T13:38:34;18.13;;;3.45;;
76059;SDS011;64759;52.220;5.170;2023-03-23T13:41:10;13.23;;;2.75;;
76059;SDS011;64759;52.220;5.170;2023-03-23T13:43:38;14.27;;;3.22;;
76059;SDS011;64759;52.220;5.170;2023-03-23T13:51:34;14.68;;;3.25;;
76059;SDS011;64759;52.220;5.170;2023-03-23T13:54:05;16.25;;;3.20;;
76059;SDS011;64759;52.220;5.170;2023-03-23T13:57:01;13.98;;;2.60;;
76059;SDS011;64759;52.220;5.170;2023-03-23T13:59:32;11.88;;;2.75;;
76059;SDS011;64759;52.220;5.170;2023-03-23T14:05:19;12.13;;;3.20;;
76059;SDS011;64759;52.220;5.170;2023-03-23T14:10:34;14.90;;;3.88;;
76059;SDS011;64759;52.220;5.170;2023-03-23T14:13:01;16.77;;;3.58;;
76059;SDS011;64759;52.220;5.170;2023-03-23T14:15:30;18.85;;;4.20;;
76059;SDS011;64759;52.220;5.170;2023-03-23T14:17:56;20.98;;;3.80;;
76059;SDS011;64759;52.220;5.170;2023-03-23T14:20:30;14.50;;;3.60;;
76059;SDS011;64759;52.220;5.170;2023-03-23T14:22:58;14.75;;;3.47;;
76059;SDS011;64759;52.220;5.170;2023-03-23T14:25:28;17.92;;;4.47;;
76059;SDS011;64759;52.220;5.170;2023-03-23T14:27:57;14.38;;;3.38;;
76059;SDS011;64759;52.220;5.170;2023-03-23T14:30:24;16.27;;;3.45;;
76059;SDS011;64759;52.220;5.170;2023-03-23T14:32:51;14.65;;;3.33;;
76059;SDS011;64759;52.220;5.170;2023-03-23T14:35:22;19.83;;;4.03;;
76059;SDS011;64759;52.220;5.170;2023-03-23T14:37:52;12.63;;;2.80;;
76059;SDS011;64759;52.220;5.170;2023-03-23T14:40:19;17.05;;;3.35;;
76059;SDS011;64759;52.220;5.170;2023-03-23T14:42:45;15.32;;;3.33;;
76059;SDS011;64759;52.220;5.170;2023-03-23T14:45:19;17.10;;;3.40;;
76059;SDS011;64759;52.220;5.170;2023-03-23T14:50:29;13.20;;;3.72;;
76059;SDS011;64759;52.220;5.170;2023-03-23T14:53:15;13.57;;;3.05;;
76059;SDS011;64759;52.220;5.170;2023-03-23T14:58:13;14.90;;;3.13;;
76059;SDS011;64759;52.220;5.170;2023-03-23T15:00:52;16.73;;;3.22;;
76059;SDS011;64759;52.220;5.170;2023-03-23T15:03:26;15.90;;;3.40;;
76059;SDS011;64759;52.220;5.170;2023-03-23T15:05:57;15.30;;;3.45;;
76059;SDS011;64759;52.220;5.170;2023-03-23T15:08:29;12.75;;;3.47;;
76059;SDS011;64759;52.220;5.170;2023-03-23T15:11:24;20.50;;;4.00;;
76059;SDS011;64759;52.220;5.170;2023-03-23T15:13:54;17.30;;;3.58;;
76059;SDS011;64759;52.220;5.170;2023-03-23T15:16:23;13.85;;;2.95;;
76059;SDS011;64759;52.220;5.170;2023-03-23T15:19:04;20.52;;;3.38;;
76059;SDS011;64759;52.220;5.170;2023-03-23T15:21:35;14.90;;;3.55;;
76059;SDS011;64759;52.220;5.170;2023-03-23T15:24:19;16.00;;;3.42;;
76059;SDS011;64759;52.220;5.170;2023-03-23T15:26:45;13.43;;;3.45;;
76059;SDS011;64759;52.220;5.170;2023-03-23T15:29:15;12.10;;;3.13;;
76059;SDS011;64759;52.220;5.170;2023-03-23T15:31:44;17.20;;;4.13;;
76059;SDS011;64759;52.220;5.170;2023-03-23T15:34:34;17.40;;;3.80;;
76059;SDS011;64759;52.220;5.170;2023-03-23T15:37:26;14.15;;;2.75;;
76059;SDS011;64759;52.220;5.170;2023-03-23T15:39:55;18.55;;;4.13;;
76059;SDS011;64759;52.220;5.170;2023-03-23T15:44:55;17.75;;;3.22;;
76059;SDS011;64759;52.220;5.170;2023-03-23T15:47:32;19.23;;;3.15;;
76059;SDS011;64759;52.220;5.170;2023-03-23T15:50:08;16.77;;;3.53;;
76059;SDS011;64759;52.220;5.170;2023-03-23T15:52:38;20.27;;;4.45;;
76059;SDS011;64759;52.220;5.170;2023-03-23T15:55:15;18.42;;;3.20;;
76059;SDS011;64759;52.220;5.170;2023-03-23T15:57:44;16.10;;;3.40;;
76059;SDS011;64759;52.220;5.170;2023-03-23T16:00:10;16.58;;;2.75;;
76059;SDS011;64759;52.220;5.170;2023-03-23T16:02:36;16.67;;;3.78;;
76059;SDS011;64759;52.220;5.170;2023-03-23T16:05:02;19.75;;;3.45;;
76059;SDS011;64759;52.220;5.170;2023-03-23T16:07:29;15.35;;;3.17;;
76059;SDS011;64759;52.220;5.170;2023-03-23T16:09:54;17.92;;;3.47;;
76059;SDS011;64759;52.220;5.170;2023-03-23T16:12:20;15.23;;;3.92;;
76059;SDS011;64759;52.220;5.170;2023-03-23T16:14:45;20.40;;;4.25;;
76059;SDS011;64759;52.220;5.170;2023-03-23T16:17:11;20.90;;;4.30;;
76059;SDS011;64759;52.220;5.170;2023-03-23T16:19:42;15.45;;;3.65;;
76059;SDS011;64759;52.220;5.170;2023-03-23T16:22:08;19.25;;;3.92;;
76059;SDS011;64759;52.220;5.170;2023-03-23T16:24:33;15.40;;;3.45;;
76059;SDS011;64759;52.220;5.170;2023-03-23T16:26:59;23.60;;;3.80;;
76059;SDS011;64759;52.220;5.170;2023-03-23T16:29:24;12.68;;;3.33;;
76059;SDS011;64759;52.220;5.170;2023-03-23T16:31:52;14.93;;;3.65;;
76059;SDS011;64759;52.220;5.170;2023-03-23T16:34:17;19.15;;;3.88;;
76059;SDS011;64759;52.220;5.170;2023-03-23T16:36:43;16.80;;;3.83;;
76059;SDS011;64759;52.220;5.170;2023-03-23T16:39:10;17.48;;;3.20;;
76059;SDS011;64759;52.220;5.170;2023-03-23T16:41:36;25.00;;;4.65;;
76059;SDS011;64759;52.220;5.170;2023-03-23T16:44:01;19.88;;;3.70;;
76059;SDS011;64759;52.220;5.170;2023-03-23T16:46:27;16.85;;;3.72;;
76059;SDS011;64759;52.220;5.170;2023-03-23T16:48:53;23.70;;;3.95;;
76059;SDS011;64759;52.220;5.170;2023-03-23T16:51:19;19.88;;;3.72;;
76059;SDS011;64759;52.220;5.170;2023-03-23T16:53:45;11.82;;;3.05;;
76059;SDS011;64759;52.220;5.170;2023-03-23T16:56:10;19.15;;;3.95;;
76059;SDS011;64759;52.220;5.170;2023-03-23T16:58:36;19.17;;;3.80;;
76059;SDS011;64759;52.220;5.170;2023-03-23T17:01:01;15.77;;;3.92;;
76059;SDS011;64759;52.220;5.170;2023-03-23T17:03:27;13.70;;;3.42;;
76059;SDS011;64759;52.220;5.170;2023-03-23T17:05:53;18.85;;;4.20;;
76059;SDS011;64759;52.220;5.170;2023-03-23T17:08:19;25.65;;;4.80;;
76059;SDS011;64759;52.220;5.170;2023-03-23T17:10:45;13.73;;;3.97;;
76059;SDS011;64759;52.220;5.170;2023-03-23T17:13:11;14.40;;;3.40;;
76059;SDS011;64759;52.220;5.170;2023-03-23T17:15:37;21.27;;;4.60;;